createdAt,value
2022-08-12T00:01:13.893Z,83.55
2022-08-12T00:04:00.453Z,82.72
2022-08-12T00:06:47.403Z,83.88
2022-08-12T00:09:33.796Z,83.70
2022-08-12T00:12:20.694Z,83.83
2022-08-12T00:15:08.064Z,84.27
2022-08-12T00:17:54.343Z,83.70
2022-08-12T00:20:40.483Z,85.73
2022-08-12T00:23:26.701Z,85.22
2022-08-12T00:26:22.342Z,81.72
2022-08-12T00:29:12.154Z,80.56
2022-08-12T00:32:00.483Z,82.31
2022-08-12T00:34:49.610Z,81.03
2022-08-12T00:37:39.294Z,80.30
2022-08-12T00:40:29.435Z,78.79
2022-08-12T00:42:58.241Z,78.70
2022-08-12T00:45:26.209Z,76.99
2022-08-12T00:47:54.314Z,76.46
2022-08-12T00:50:23.152Z,75.16
2022-08-12T00:52:52.957Z,77.14
2022-08-12T00:55:21.453Z,76.27
2022-08-12T00:57:50.674Z,76.69
2022-08-12T01:00:22.436Z,76.99
2022-08-12T01:02:53.420Z,77.99
2022-08-12T01:05:41.769Z,77.86
2022-08-12T01:08:27.853Z,77.20
2022-08-12T01:11:15.392Z,76.50
2022-08-12T01:13:50.421Z,74.98
2022-08-12T01:16:22.848Z,75.56
2022-08-12T01:18:52.817Z,74.73
2022-08-12T01:21:57.625Z,75.11
2022-08-12T01:24:31.472Z,77.21
2022-08-12T01:27:02.528Z,74.45
2022-08-12T01:29:35.199Z,74.82
2022-08-12T01:32:10.589Z,73.90
2022-08-12T01:34:41.457Z,73.71
2022-08-12T01:37:10.105Z,73.04
2022-08-12T01:40:33.580Z,73.23
2022-08-12T01:42:45.076Z,73.23
2022-08-12T01:45:14.113Z,73.36
2022-08-12T01:47:54.683Z,72.58
2022-08-12T01:50:43.092Z,72.81
2022-08-12T01:53:15.006Z,74.11
2022-08-12T01:55:45.954Z,75.02
2022-08-12T01:58:16.596Z,76.14
2022-08-12T02:00:59.291Z,76.00
2022-08-12T02:04:00.256Z,73.88
2022-08-12T02:07:11.256Z,72.94
2022-08-12T02:10:50.971Z,72.63
2022-08-12T02:13:48.356Z,72.70
2022-08-12T02:16:31.897Z,73.13
2022-08-12T02:19:22.594Z,72.62
2022-08-12T02:22:08.841Z,72.18
2022-08-12T02:24:39.616Z,73.79
2022-08-12T02:27:08.908Z,73.15
2022-08-12T02:29:36.930Z,72.65
2022-08-12T02:32:05.039Z,71.32
2022-08-12T02:34:34.528Z,72.06
2022-08-12T02:37:03.814Z,72.28
2022-08-12T02:39:34.211Z,73.11
2022-08-12T02:42:04.618Z,73.50
2022-08-12T02:44:40.349Z,73.25
2022-08-12T02:47:55.571Z,72.19
2022-08-12T02:49:58.727Z,73.04
2022-08-12T02:52:27.424Z,72.16
2022-08-12T02:55:04.525Z,72.67
2022-08-12T02:57:32.237Z,74.22
2022-08-12T03:00:03.252Z,73.51
2022-08-12T03:02:33.598Z,74.54
2022-08-12T03:05:03.455Z,73.96
2022-08-12T03:07:59.732Z,73.74
2022-08-12T03:10:37.392Z,72.57
2022-08-12T03:13:08.206Z,72.13
2022-08-12T03:15:36.690Z,72.42
2022-08-12T03:18:30.888Z,69.91
2022-08-12T03:21:02.373Z,70.14
2022-08-12T03:23:31.529Z,69.98
2022-08-12T03:26:01.937Z,68.46
2022-08-12T03:28:50.808Z,69.42
2022-08-12T03:31:22.699Z,69.22
2022-08-12T03:34:01.572Z,69.23
2022-08-12T03:36:36.353Z,67.67
2022-08-12T03:39:17.755Z,66.60
2022-08-12T03:42:17.474Z,66.65
2022-08-12T03:45:50.111Z,67.61
2022-08-12T03:48:38.827Z,68.67
2022-08-12T03:51:25.199Z,69.34
2022-08-12T03:54:12.011Z,68.77
2022-08-12T03:56:59.059Z,68.66
2022-08-12T03:59:44.973Z,68.61
2022-08-12T04:02:16.668Z,67.88
2022-08-12T04:04:47.365Z,67.37
2022-08-12T04:07:17.569Z,64.44
2022-08-12T04:09:46.749Z,66.31
2022-08-12T04:12:33.643Z,65.42
2022-08-12T04:15:02.255Z,65.62
2022-08-12T04:17:31.744Z,63.19
2022-08-12T04:20:01.183Z,64.24
2022-08-12T04:22:30.696Z,65.40
2022-08-12T04:25:03.144Z,65.52
2022-08-12T04:27:32.446Z,63.29
2022-08-12T04:30:20.952Z,61.80
2022-08-12T04:32:51.085Z,62.28
2022-08-12T04:35:20.398Z,62.34
2022-08-12T04:37:58.776Z,63.22
2022-08-12T04:40:30.970Z,62.07
2022-08-12T04:43:01.250Z,60.71
2022-08-12T04:45:31.161Z,60.57
2022-08-12T04:47:59.322Z,58.58
2022-08-12T04:50:33.825Z,57.44
2022-08-12T04:53:04.818Z,57.31
2022-08-12T04:55:34.800Z,58.39
2022-08-12T04:58:02.684Z,59.23
2022-08-12T05:00:30.475Z,59.69
2022-08-12T05:02:58.312Z,59.71
2022-08-12T05:05:26.574Z,58.76
2022-08-12T05:07:55.231Z,60.26
2022-08-12T05:10:33.903Z,59.88
2022-08-12T05:13:15.719Z,59.13
2022-08-12T05:16:04.161Z,60.86
2022-08-12T05:18:35.477Z,59.68
2022-08-12T05:21:09.250Z,60.37
2022-08-12T05:23:37.647Z,59.71
2022-08-12T05:26:06.316Z,60.29
2022-08-12T05:28:34.602Z,60.48
2022-08-12T05:31:02.478Z,58.81
2022-08-12T05:33:41.188Z,57.99
2022-08-12T05:36:12.864Z,57.53
2022-08-12T05:38:57.005Z,58.48
2022-08-12T05:41:36.118Z,58.30
2022-08-12T05:44:12.887Z,57.10
2022-08-12T05:46:41.324Z,57.17
2022-08-12T05:49:09.388Z,55.94
2022-08-12T05:51:41.241Z,54.43
2022-08-12T05:54:11.543Z,54.69
2022-08-12T05:56:41.352Z,54.90
2022-08-12T05:59:11.373Z,55.58
2022-08-12T06:02:11.291Z,55.34
2022-08-12T06:04:28.842Z,53.43
2022-08-12T06:06:56.870Z,53.00
2022-08-12T06:09:26.460Z,52.38
2022-08-12T06:12:05.051Z,52.07
2022-08-12T06:14:37.690Z,52.45
2022-08-12T06:17:08.643Z,52.69
2022-08-12T06:20:26.400Z,51.94
2022-08-12T06:22:28.343Z,51.49
2022-08-12T06:24:56.033Z,51.89
2022-08-12T06:27:23.733Z,53.18
2022-08-12T06:30:09.883Z,52.59
2022-08-12T06:32:51.801Z,53.36
2022-08-12T06:35:48.909Z,52.55
2022-08-12T06:38:23.116Z,51.70
2022-08-12T06:41:12.581Z,49.98
2022-08-12T06:44:06.198Z,48.49
2022-08-12T06:46:30.575Z,48.31
2022-08-12T06:48:59.512Z,48.81
2022-08-12T06:51:29.628Z,47.80
2022-08-12T06:53:58.169Z,48.18
2022-08-12T06:56:45.958Z,47.11
2022-08-12T06:59:15.732Z,46.84
2022-08-12T07:01:49.827Z,46.91
2022-08-12T07:04:37.503Z,46.20
2022-08-12T07:07:08.286Z,46.49
2022-08-12T07:10:00.008Z,46.18
2022-08-12T07:12:26.952Z,45.83
2022-08-12T07:14:59.926Z,45.64
2022-08-12T07:17:37.579Z,44.92
2022-08-12T07:20:09.965Z,45.02
2022-08-12T07:22:39.138Z,44.59
2022-08-12T07:25:26.317Z,45.09
2022-08-12T07:27:55.198Z,43.71
2022-08-12T07:30:23.348Z,42.68
2022-08-12T07:32:51.696Z,42.82
2022-08-12T07:35:20.414Z,42.79
2022-08-12T07:37:50.437Z,41.70
2022-08-12T07:40:18.867Z,40.84
2022-08-12T07:42:47.022Z,40.68
2022-08-12T07:45:14.953Z,40.37
2022-08-12T07:47:45.567Z,40.20
2022-08-12T07:50:16.912Z,40.31
2022-08-12T07:52:48.893Z,41.01
2022-08-12T07:55:17.496Z,41.42
2022-08-12T07:57:55.945Z,41.09
2022-08-12T08:00:24.217Z,40.49
2022-08-12T08:02:54.285Z,40.81
2022-08-12T08:05:25.022Z,40.67
2022-08-12T08:08:01.838Z,40.13
2022-08-12T08:10:30.494Z,40.28
2022-08-12T08:12:59.568Z,40.27
2022-08-12T08:16:00.736Z,40.06
2022-08-12T08:18:26.209Z,41.08
2022-08-12T08:20:56.314Z,40.77
2022-08-12T08:23:46.304Z,41.15
2022-08-12T08:26:16.522Z,40.63
2022-08-12T08:28:44.333Z,40.45
2022-08-12T08:31:14.376Z,40.20
2022-08-12T08:34:09.081Z,40.59
2022-08-12T08:36:30.836Z,40.24
2022-08-12T08:38:58.893Z,39.57
2022-08-12T08:42:19.188Z,38.79
2022-08-12T08:44:38.310Z,38.11
2022-08-12T08:47:07.606Z,39.07
2022-08-12T08:49:37.158Z,39.34
2022-08-12T08:52:07.494Z,39.25
2022-08-12T08:54:35.217Z,38.93
2022-08-12T08:57:04.633Z,39.21
2022-08-12T08:59:32.324Z,38.78
2022-08-12T09:02:00.076Z,38.56
2022-08-12T09:05:12.942Z,38.22
2022-08-12T09:07:58.712Z,38.32
2022-08-12T09:13:16.248Z,38.46
2022-08-12T09:15:57.589Z,37.88
2022-08-12T09:18:33.171Z,37.73
2022-08-12T09:21:02.142Z,38.39
2022-08-12T09:26:19.690Z,38.44
2022-08-12T09:28:52.629Z,39.30
2022-08-12T09:32:04.253Z,38.86
2022-08-12T09:34:27.948Z,38.55
2022-08-12T09:37:18.542Z,37.76
2022-08-12T09:40:06.323Z,37.58
2022-08-12T09:43:15.592Z,37.30
2022-08-12T09:46:07.014Z,37.20
2022-08-12T09:48:35.178Z,37.36
2022-08-12T09:51:11.050Z,37.32
2022-08-12T09:54:08.348Z,37.71
2022-08-12T09:57:01.875Z,37.81
2022-08-12T10:00:14.575Z,37.08
2022-08-12T10:02:45.960Z,37.27
2022-08-12T10:05:13.352Z,37.60
2022-08-12T10:07:41.640Z,37.07
2022-08-12T10:10:24.284Z,36.82
2022-08-12T10:13:34.441Z,35.47
2022-08-12T10:16:29.201Z,34.47
2022-08-12T10:19:01.754Z,34.03
2022-08-12T10:21:35.476Z,33.34
2022-08-12T10:24:05.040Z,33.65
2022-08-12T10:26:52.880Z,33.40
2022-08-12T10:30:40.627Z,33.35
2022-08-12T10:32:45.205Z,32.95
2022-08-12T10:35:15.716Z,32.79
2022-08-12T10:38:34.846Z,32.31
2022-08-12T10:40:34.342Z,32.19
2022-08-12T10:43:23.813Z,31.86
2022-08-12T10:45:54.314Z,32.07
2022-08-12T10:48:33.667Z,31.60
2022-08-12T10:52:02.746Z,32.04
2022-08-12T10:54:00.911Z,32.45
2022-08-12T10:56:34.289Z,32.24
2022-08-12T10:59:10.626Z,32.63
2022-08-12T11:04:18.557Z,32.39
2022-08-12T11:04:45.346Z,33.16
2022-08-12T11:08:33.482Z,32.86
2022-08-12T11:10:05.462Z,32.66
2022-08-12T11:12:56.759Z,32.51
2022-08-12T11:15:24.203Z,32.93
2022-08-12T11:18:03.239Z,32.27
2022-08-12T11:20:31.440Z,33.12
2022-08-12T11:23:04.023Z,33.82
2022-08-12T11:25:42.328Z,33.28
2022-08-12T11:28:33.516Z,33.93
2022-08-12T11:31:09.777Z,33.44
2022-08-12T11:34:06.518Z,32.81
2022-08-12T11:36:28.827Z,33.47
2022-08-12T11:38:56.285Z,32.47
2022-08-12T11:41:31.823Z,31.94
2022-08-12T11:44:02.036Z,31.12
2022-08-12T11:46:51.293Z,33.50
2022-08-12T11:49:31.028Z,32.97
2022-08-12T11:52:01.172Z,33.67
2022-08-12T11:54:29.569Z,32.29
2022-08-12T11:57:02.351Z,31.76
2022-08-12T12:02:20.303Z,32.40
2022-08-12T12:04:53.712Z,33.22
2022-08-12T12:07:33.677Z,33.22
2022-08-12T12:10:16.277Z,31.29
2022-08-12T12:12:50.236Z,31.22
2022-08-12T12:15:25.042Z,32.00
2022-08-12T12:17:55.764Z,31.63
2022-08-12T12:20:26.011Z,30.73
2022-08-12T12:22:55.361Z,30.86
2022-08-12T12:25:59.345Z,31.60
2022-08-12T12:28:37.155Z,31.27
2022-08-12T12:30:58.154Z,31.53
2022-08-12T12:33:57.114Z,31.55
2022-08-12T12:36:20.874Z,31.38
2022-08-12T12:38:51.837Z,31.80
2022-08-12T12:41:19.880Z,31.85
2022-08-12T12:44:03.586Z,32.06
2022-08-12T12:46:32.065Z,32.54
2022-08-12T12:48:59.478Z,33.28
2022-08-12T12:52:06.739Z,33.79
2022-08-12T12:54:16.251Z,32.54
2022-08-12T12:56:50.099Z,32.57
2022-08-12T12:59:55.657Z,32.34
2022-08-12T13:02:08.653Z,31.28
2022-08-12T13:04:37.861Z,30.82
2022-08-12T13:07:06.522Z,30.92
2022-08-12T13:09:36.092Z,31.23
2022-08-12T13:12:08.913Z,31.39
2022-08-12T13:14:39.727Z,31.65
2022-08-12T13:17:14.695Z,31.30
2022-08-12T13:19:46.604Z,32.02
2022-08-12T13:22:21.675Z,31.89
2022-08-12T13:24:57.080Z,31.95
2022-08-12T13:27:34.391Z,30.64
2022-08-12T13:30:12.476Z,31.43
2022-08-12T13:32:57.347Z,31.88
2022-08-12T13:35:33.331Z,31.51
2022-08-12T13:38:26.655Z,31.52
2022-08-12T13:41:35.942Z,30.85
2022-08-12T13:44:06.786Z,31.20
2022-08-12T13:46:40.844Z,31.25
2022-08-12T13:49:11.564Z,30.96
2022-08-12T13:51:51.222Z,30.86
2022-08-12T13:54:19.567Z,31.11
2022-08-12T13:56:50.052Z,31.27
2022-08-12T13:59:24.664Z,31.44
2022-08-12T14:01:56.669Z,32.51
2022-08-12T14:04:24.810Z,31.85
2022-08-12T14:06:54.045Z,32.07
2022-08-12T14:09:21.618Z,31.71
2022-08-12T14:11:58.629Z,32.06
2022-08-12T14:14:31.259Z,32.60
2022-08-12T14:17:09.994Z,32.54
2022-08-12T14:20:00.487Z,32.33
2022-08-12T14:22:28.945Z,32.52
2022-08-12T14:24:58.841Z,32.74
2022-08-12T14:28:03.301Z,32.94
2022-08-12T14:30:28.792Z,32.79
2022-08-12T14:32:58.011Z,33.07
2022-08-12T14:35:25.675Z,32.57
2022-08-12T14:37:56.541Z,32.54
2022-08-12T14:40:30.328Z,32.06
2022-08-12T14:42:58.752Z,32.47
2022-08-12T14:45:44.874Z,32.34
2022-08-12T14:48:18.737Z,31.94
2022-08-12T14:52:10.578Z,32.58
2022-08-12T14:59:58.384Z,32.51
2022-08-12T15:02:23.248Z,33.25
2022-08-12T15:04:58.954Z,32.47
2022-08-12T15:07:43.796Z,32.10
2022-08-12T15:10:25.444Z,32.07
2022-08-12T15:13:07.220Z,32.54
2022-08-12T15:15:45.629Z,32.16
2022-08-12T15:18:21.692Z,33.07
2022-08-12T15:20:52.117Z,35.21
2022-08-12T15:23:22.677Z,35.41
2022-08-12T15:26:02.483Z,36.71
2022-08-12T15:28:34.258Z,38.42
2022-08-12T15:31:02.909Z,37.09
2022-08-12T15:33:52.711Z,38.19
2022-08-12T15:36:36.606Z,36.33
2022-08-12T15:39:16.743Z,36.36
2022-08-12T15:41:49.331Z,35.40
2022-08-12T15:44:42.317Z,36.49
2022-08-12T15:47:05.815Z,35.78
2022-08-12T15:49:54.547Z,35.27
2022-08-12T15:52:29.724Z,35.79
2022-08-12T15:55:05.956Z,37.10
2022-08-12T15:57:53.223Z,38.45
2022-08-12T16:00:33.206Z,39.47
2022-08-12T16:03:05.697Z,40.57
2022-08-12T16:06:12.956Z,42.15
2022-08-12T16:08:29.741Z,43.99
2022-08-12T16:10:57.744Z,47.04
2022-08-12T16:13:34.593Z,53.76
2022-08-12T16:16:23.025Z,54.88
2022-08-12T16:19:00.778Z,65.82
2022-08-12T16:21:51.405Z,76.08
2022-08-12T16:24:20.563Z,83.32
2022-08-12T16:26:51.374Z,82.56
2022-08-12T16:29:49.386Z,85.42
2022-08-12T16:32:21.114Z,87.59
2022-08-12T16:34:54.955Z,96.88
2022-08-12T16:37:32.613Z,91.44
2022-08-12T16:40:18.817Z,89.11
2022-08-12T16:43:01.580Z,91.52
2022-08-12T16:46:07.972Z,91.68
2022-08-12T16:48:35.055Z,80.44
2022-08-12T16:51:10.321Z,85.35
2022-08-12T16:53:43.424Z,92.29
2022-08-12T16:56:17.309Z,92.52
2022-08-12T16:58:47.279Z,91.78
2022-08-12T17:01:15.794Z,94.17
2022-08-12T17:03:59.741Z,87.46
2022-08-12T17:06:30.835Z,85.24
2022-08-12T17:09:08.410Z,87.55
2022-08-12T17:11:39.335Z,89.56
2022-08-12T17:14:11.747Z,92.15
2022-08-12T17:16:40.354Z,91.49
2022-08-12T17:19:09.752Z,90.72
2022-08-12T17:21:51.870Z,94.58
2022-08-12T17:24:32.472Z,92.54
2022-08-12T17:27:09.488Z,96.29
2022-08-12T17:30:02.742Z,89.25
2022-08-12T17:32:35.111Z,90.72
2022-08-12T17:35:21.304Z,92.71
2022-08-12T17:37:50.843Z,95.05
2022-08-12T17:40:35.916Z,91.81
2022-08-12T17:43:52.172Z,95.02
2022-08-12T17:45:59.078Z,93.05
2022-08-12T17:48:34.432Z,91.60
2022-08-12T17:51:15.217Z,91.18
2022-08-12T17:54:11.615Z,90.04
2022-08-12T17:56:37.465Z,97.13
2022-08-12T17:59:07.487Z,94.12
2022-08-12T18:01:36.684Z,91.50
2022-08-12T18:04:21.864Z,95.26
2022-08-12T18:06:52.212Z,94.97
2022-08-12T18:09:24.445Z,97.62
2022-08-12T18:12:12.109Z,99.73
2022-08-12T18:14:41.310Z,97.61
2022-08-12T18:17:10.159Z,100.00
2022-08-12T18:20:06.527Z,99.18
2022-08-12T18:22:31.420Z,98.19
2022-08-12T18:25:04.229Z,100.00
2022-08-12T18:27:44.001Z,100.00
2022-08-12T18:30:16.370Z,98.77
2022-08-12T18:33:05.007Z,95.61
2022-08-12T18:35:46.306Z,95.52
2022-08-12T18:38:19.854Z,96.25
2022-08-12T18:41:09.822Z,92.97
2022-08-12T18:43:59.089Z,93.62
2022-08-12T18:46:37.825Z,92.64
2022-08-12T18:49:17.262Z,95.50
2022-08-12T18:51:54.769Z,96.98
2022-08-12T18:54:26.810Z,97.74
2022-08-12T18:57:00.711Z,99.18
2022-08-12T19:00:02.300Z,100.00
2022-08-12T19:02:22.024Z,100.00
2022-08-12T19:04:53.342Z,100.00
2022-08-12T19:07:25.535Z,100.00
2022-08-12T19:10:00.065Z,100.00
2022-08-12T19:12:57.151Z,100.00
2022-08-12T19:15:27.302Z,96.57
2022-08-12T19:18:01.047Z,97.48
2022-08-12T19:20:32.897Z,97.05
2022-08-12T19:23:08.240Z,94.62
2022-08-12T19:26:01.024Z,100.00
2022-08-12T19:28:35.690Z,97.99
2022-08-12T19:31:45.228Z,94.83
2022-08-12T19:38:02.483Z,84.31
2022-08-12T19:40:20.513Z,81.94
2022-08-12T19:43:02.391Z,84.37
2022-08-12T19:45:50.431Z,92.42
2022-08-12T19:48:20.660Z,90.77
2022-08-12T19:50:52.192Z,94.08
2022-08-12T19:53:23.582Z,91.70
2022-08-12T19:55:53.967Z,92.20
2022-08-12T19:58:22.899Z,91.91
2022-08-12T20:00:53.634Z,97.79
2022-08-12T20:03:40.295Z,94.95
2022-08-12T20:06:16.000Z,93.65
2022-08-12T20:08:56.414Z,96.67
2022-08-12T20:12:13.270Z,98.60
2022-08-12T20:14:19.441Z,97.89
2022-08-12T20:16:56.430Z,94.84
2022-08-12T20:20:01.701Z,92.20
2022-08-12T20:22:31.535Z,89.41
2022-08-12T20:25:09.472Z,92.34
2022-08-12T20:28:04.525Z,94.55
2022-08-12T20:30:37.180Z,91.72
2022-08-12T20:33:23.298Z,85.37
2022-08-12T20:36:13.757Z,90.84
2022-08-12T20:38:51.246Z,93.21
2022-08-12T20:41:25.209Z,92.33
2022-08-12T20:43:55.569Z,95.31
2022-08-12T20:46:29.706Z,94.29
2022-08-12T20:49:11.646Z,94.75
2022-08-12T20:51:55.091Z,91.99
2022-08-12T20:54:32.677Z,91.36
2022-08-12T20:57:08.731Z,93.22
2022-08-12T20:59:47.675Z,93.31
2022-08-12T21:02:24.620Z,90.62
2022-08-12T21:06:09.559Z,90.12
2022-08-12T21:08:26.539Z,90.57
2022-08-12T21:10:59.095Z,89.64
2022-08-12T21:13:27.666Z,89.34
2022-08-12T21:16:01.573Z,85.92
2022-08-12T21:18:30.631Z,84.44
2022-08-12T21:21:00.239Z,85.76
2022-08-12T21:23:30.906Z,85.64
2022-08-12T21:26:07.191Z,86.03
2022-08-12T21:28:41.587Z,89.61
2022-08-12T21:32:37.810Z,86.63
2022-08-12T21:34:14.746Z,88.41
2022-08-12T21:36:48.548Z,88.65
2022-08-12T21:39:21.236Z,91.41
2022-08-12T21:41:52.265Z,91.14
2022-08-12T21:44:32.528Z,90.53
2022-08-12T21:47:20.233Z,94.61
2022-08-12T21:50:03.372Z,91.48
2022-08-12T21:55:19.085Z,92.08
2022-08-12T21:57:54.791Z,89.29
2022-08-12T22:00:36.778Z,92.05
2022-08-12T22:04:03.498Z,92.56
2022-08-12T22:06:31.807Z,92.32
2022-08-12T22:09:16.876Z,89.89
2022-08-12T22:11:49.177Z,90.90
2022-08-12T22:14:24.617Z,91.88
2022-08-12T22:16:54.410Z,91.12
2022-08-12T22:19:22.721Z,91.08
2022-08-12T22:21:53.852Z,90.76
2022-08-12T22:24:27.152Z,91.34
2022-08-12T22:27:07.995Z,89.55
2022-08-12T22:30:15.957Z,92.86
2022-08-12T22:32:50.781Z,93.01
2022-08-12T22:35:55.481Z,93.49
2022-08-12T22:38:25.407Z,93.20
2022-08-12T22:41:00.929Z,90.91
2022-08-12T22:44:00.034Z,91.13
2022-08-12T22:46:53.181Z,89.96
2022-08-12T22:49:36.890Z,87.31
2022-08-12T22:52:13.992Z,88.66
2022-08-12T22:55:03.906Z,87.78
2022-08-12T22:57:54.440Z,87.46
2022-08-12T23:00:24.464Z,88.71
2022-08-12T23:03:03.193Z,88.63
2022-08-12T23:05:56.649Z,91.19
2022-08-12T23:08:24.100Z,87.82
2022-08-12T23:11:06.132Z,89.35
2022-08-12T23:13:57.038Z,88.41
2022-08-12T23:16:33.249Z,88.47
2022-08-12T23:19:17.749Z,88.73
2022-08-12T23:22:05.621Z,89.31
2022-08-12T23:24:55.599Z,89.15
2022-08-12T23:27:51.957Z,88.25
2022-08-12T23:30:31.785Z,89.06
2022-08-12T23:33:20.080Z,88.73
2022-08-12T23:36:02.395Z,89.51
2022-08-12T23:38:32.993Z,88.84
2022-08-12T23:41:03.397Z,88.32
2022-08-12T23:43:40.129Z,90.59
2022-08-12T23:46:10.963Z,88.94
2022-08-12T23:48:40.066Z,87.50
2022-08-12T23:51:21.762Z,87.10
2022-08-12T23:53:56.444Z,88.37
2022-08-12T23:56:29.336Z,87.63
2022-08-12T23:58:57.451Z,88.15
